Time;durP1;ratioP1;P1;durP2;ratioP2;P2;SDS_P1;SDS_P2;PMS_P1;PMS_P2;Temp;Humidity;BMP_temperature;BMP_pressure;BME280_temperature;BME280_humidity;BME280_pressure;Samples;Min_cycle;Max_cycle;Signal;HPM_P1;HPM_P2
2024/04/01 00:00:01;;;;;;;8.02;4.07;;;10.30;99.90;;;;;;5007507;28;20245;-88
2024/04/01 00:02:26;;;;;;;7.45;3.20;;;10.20;99.90;;;;;;4998450;28;20036;-88
2024/04/01 00:04:54;;;;;;;8.65;3.83;;;10.20;99.90;;;;;;5021832;28;20056;-88
2024/04/01 00:07:19;;;;;;;11.60;4.20;;;10.20;99.90;;;;;;5027937;28;20046;-88
2024/04/01 00:09:46;;;;;;;12.05;4.85;;;10.10;99.90;;;;;;5004236;28;20069;-88
2024/04/01 00:12:12;;;;;;;13.35;5.53;;;10.00;99.90;;;;;;5005401;28;20437;-88
2024/04/01 00:14:38;;;;;;;10.32;5.70;;;9.90;99.90;;;;;;5034122;28;20033;-88
2024/04/01 00:17:04;;;;;;;15.35;5.95;;;9.80;99.90;;;;;;4998222;28;20077;-88
2024/04/01 00:19:30;;;;;;;14.10;6.60;;;9.70;99.90;;;;;;4996397;28;20038;-88
2024/04/01 00:21:56;;;;;;;15.20;6.68;;;9.60;99.90;;;;;;4997550;28;20018;-88
2024/04/01 00:24:22;;;;;;;12.02;5.60;;;9.60;99.90;;;;;;5000163;28;20029;-89
2024/04/01 00:26:47;;;;;;;10.52;4.95;;;9.50;99.90;;;;;;5006302;28;20033;-88
2024/04/01 00:29:13;;;;;;;15.13;5.20;;;9.40;99.90;;;;;;5007121;28;20391;-87
2024/04/01 00:31:39;;;;;;;10.98;4.60;;;9.40;99.90;;;;;;4997249;28;20117;-87
2024/04/01 00:34:04;;;;;;;9.80;4.72;;;9.40;99.90;;;;;;5018047;28;20029;-88
2024/04/01 00:36:30;;;;;;;9.00;4.30;;;9.40;99.90;;;;;;5001737;28;20168;-88
2024/04/01 00:38:55;;;;;;;10.55;4.00;;;9.40;99.90;;;;;;5003234;28;20071;-87
2024/04/01 00:41:28;;;;;;;9.02;4.00;;;9.30;99.90;;;;;;4992852;28;20052;-88
2024/04/01 00:43:53;;;;;;;13.38;4.28;;;9.30;99.90;;;;;;4997746;28;20022;-88
2024/04/01 00:46:20;;;;;;;10.82;3.60;;;9.30;99.90;;;;;;4998740;28;20036;-88
2024/04/01 00:48:50;;;;;;;8.20;3.55;;;9.30;99.90;;;;;;5006509;28;20552;-88
2024/04/01 00:51:18;;;;;;;13.05;4.30;;;9.30;99.90;;;;;;4993646;28;20088;-88
2024/04/01 00:53:45;;;;;;;8.55;4.03;;;9.30;99.90;;;;;;5005579;28;20034;-88
2024/04/01 00:56:12;;;;;;;9.07;3.70;;;9.30;99.90;;;;;;5015300;28;20048;-88
2024/04/01 00:58:38;;;;;;;12.77;4.65;;;9.30;99.90;;;;;;4999394;28;20048;-87
2024/04/01 01:01:04;;;;;;;9.98;4.05;;;9.20;99.90;;;;;;4997596;28;20034;-87
2024/04/01 01:03:30;;;;;;;11.73;4.28;;;9.20;99.90;;;;;;5002949;28;20040;-87
2024/04/01 01:05:56;;;;;;;8.82;4.70;;;9.20;99.90;;;;;;5004295;28;20478;-88
2024/04/01 01:08:21;;;;;;;11.02;4.13;;;9.20;99.90;;;;;;5004294;28;20489;-89
2024/04/01 01:10:47;;;;;;;8.95;5.10;;;9.20;99.90;;;;;;5004992;28;20029;-88
2024/04/01 01:13:15;;;;;;;6.90;3.70;;;9.20;99.90;;;;;;4999696;28;20026;-87
2024/04/01 01:15:41;;;;;;;12.73;4.07;;;9.10;99.90;;;;;;4998169;28;20041;-87
2024/04/01 01:18:06;;;;;;;13.15;5.03;;;9.20;99.90;;;;;;5005117;28;20042;-87
2024/04/01 01:20:32;;;;;;;15.82;7.65;;;9.10;99.90;;;;;;5015550;28;20112;-88
2024/04/01 01:22:57;;;;;;;20.17;10.00;;;9.10;99.90;;;;;;4997650;28;20042;-88
2024/04/01 01:25:23;;;;;;;19.48;11.02;;;9.10;99.90;;;;;;5008066;28;20030;-88
2024/04/01 01:27:49;;;;;;;20.27;12.10;;;9.00;99.90;;;;;;5013381;28;20538;-88
2024/04/01 01:30:15;;;;;;;18.08;10.52;;;9.00;99.90;;;;;;4991129;28;20045;-88
2024/04/01 01:32:55;;;;;;;15.77;9.45;;;9.10;99.90;;;;;;5000392;28;20053;-87
2024/04/01 01:35:22;;;;;;;15.90;9.73;;;9.10;99.90;;;;;;5006602;28;20460;-88
2024/04/01 01:37:49;;;;;;;15.65;9.95;;;9.10;99.90;;;;;;5010371;28;20120;-88
2024/04/01 01:40:15;;;;;;;11.20;7.25;;;9.10;99.90;;;;;;5013312;28;20028;-88
2024/04/01 01:42:40;;;;;;;9.95;6.85;;;9.10;99.90;;;;;;5000683;28;20474;-87
2024/04/01 01:45:07;;;;;;;15.35;7.65;;;9.10;99.90;;;;;;4997780;28;20133;-88
2024/04/01 01:47:33;;;;;;;10.75;6.28;;;9.00;99.90;;;;;;5000230;28;20025;-88
2024/04/01 01:50:03;;;;;;;12.07;5.47;;;9.10;99.90;;;;;;4995547;28;20053;-88
2024/04/01 01:52:29;;;;;;;10.20;5.30;;;9.00;99.90;;;;;;4992877;28;20022;-87
2024/04/01 01:54:55;;;;;;;11.70;5.60;;;9.10;99.90;;;;;;4999901;28;20037;-88
2024/04/01 01:57:21;;;;;;;8.38;4.75;;;9.10;99.90;;;;;;4999071;28;20034;-88
2024/04/01 01:59:47;;;;;;;8.68;4.63;;;9.10;99.90;;;;;;5010532;28;20065;-88
2024/04/01 02:02:13;;;;;;;9.25;4.85;;;9.10;99.90;;;;;;4993398;28;20033;-87
2024/04/01 02:04:39;;;;;;;6.40;4.40;;;9.10;99.90;;;;;;5018328;28;20037;-88
2024/04/01 02:07:05;;;;;;;9.77;4.72;;;9.20;99.90;;;;;;4997852;28;20026;-88
2024/04/01 02:09:31;;;;;;;12.48;4.70;;;9.20;99.90;;;;;;5002097;28;20109;-88
2024/04/01 02:11:58;;;;;;;7.70;4.47;;;9.20;99.90;;;;;;5005225;28;20029;-89
2024/04/01 02:14:24;;;;;;;9.07;5.00;;;9.20;99.90;;;;;;5003870;28;20022;-88
2024/04/01 02:16:49;;;;;;;15.43;4.40;;;9.20;99.90;;;;;;5001862;28;20041;-87
2024/04/01 02:19:15;;;;;;;7.18;3.33;;;9.20;99.90;;;;;;5005166;28;20041;-87
2024/04/01 02:21:47;;;;;;;8.05;3.97;;;9.20;99.90;;;;;;4995828;28;20030;-87
2024/04/01 02:24:20;;;;;;;7.10;3.55;;;9.20;99.90;;;;;;4995464;28;20125;-87
2024/04/01 02:26:48;;;;;;;;;;;9.20;99.90;;;;;;4998308;28;20097;-88
2024/04/01 02:29:15;;;;;;;11.57;3.65;;;9.10;99.90;;;;;;5013356;28;19912;-89
2024/04/01 02:31:44;;;;;;;10.48;3.88;;;9.20;99.90;;;;;;4997603;28;20048;-88
2024/04/01 02:34:10;;;;;;;8.57;4.50;;;9.10;99.90;;;;;;4996977;28;20034;-88
2024/04/01 02:36:36;;;;;;;8.00;3.85;;;9.20;99.90;;;;;;4992486;28;20054;-88
2024/04/01 02:39:05;;;;;;;9.63;3.88;;;9.20;99.90;;;;;;5002514;28;20026;-88
2024/04/01 02:41:33;;;;;;;6.63;3.85;;;9.10;99.90;;;;;;4997248;28;20041;-88
2024/04/01 02:43:59;;;;;;;6.65;3.63;;;9.20;99.90;;;;;;5027583;28;20024;-88
2024/04/01 02:46:25;;;;;;;6.10;4.13;;;9.10;99.90;;;;;;4999424;28;20109;-88
2024/04/01 02:48:51;;;;;;;7.47;4.55;;;9.10;99.90;;;;;;5000591;28;20030;-88
2024/04/01 02:51:17;;;;;;;12.30;4.95;;;9.10;99.90;;;;;;5003849;28;20105;-87
2024/04/01 02:53:49;;;;;;;11.70;4.88;;;9.10;99.90;;;;;;5014058;28;20026;-88
2024/04/01 02:56:14;;;;;;;8.73;4.32;;;9.10;99.90;;;;;;4998639;28;20057;-89
2024/04/01 02:58:43;;;;;;;9.18;4.35;;;9.10;99.90;;;;;;4999240;28;20061;-88
2024/04/01 03:01:15;;;;;;;13.18;4.78;;;9.10;99.90;;;;;;4997158;28;20060;-90
2024/04/01 03:03:41;;;;;;;9.68;4.85;;;9.00;99.90;;;;;;5010844;28;20018;-88
2024/04/01 03:06:07;;;;;;;11.35;5.35;;;9.10;99.90;;;;;;5010027;28;20093;-88
2024/04/01 03:08:38;;;;;;;9.07;4.63;;;9.00;99.90;;;;;;5016812;28;20053;-88
2024/04/01 03:11:04;;;;;;;9.73;4.43;;;9.00;99.90;;;;;;5002245;28;20049;-88
2024/04/01 03:13:30;;;;;;;10.65;5.15;;;9.00;99.90;;;;;;5021471;28;20045;-88
2024/04/01 03:15:57;;;;;;;9.10;4.93;;;9.00;99.90;;;;;;4989158;28;20026;-88
2024/04/01 03:18:24;;;;;;;11.80;5.47;;;9.00;99.90;;;;;;5017798;28;20383;-88
2024/04/01 03:20:50;;;;;;;13.35;5.15;;;9.00;99.90;;;;;;5011677;28;20501;-88
2024/04/01 03:23:16;;;;;;;12.43;5.38;;;8.90;99.90;;;;;;5010235;28;20042;-88
2024/04/01 03:25:48;;;;;;;9.20;5.88;;;8.90;99.90;;;;;;5020847;28;20065;-88
2024/04/01 03:28:14;;;;;;;16.75;5.18;;;8.90;99.90;;;;;;4994001;28;20478;-88
2024/04/01 03:30:39;;;;;;;12.57;4.85;;;8.80;99.90;;;;;;5015436;28;20040;-88
2024/04/01 03:33:06;;;;;;;9.13;5.18;;;8.80;99.90;;;;;;5003356;28;20088;-89
2024/04/01 03:35:32;;;;;;;9.90;4.82;;;8.80;99.90;;;;;;5002258;28;20072;-88
2024/04/01 03:37:58;;;;;;;8.60;4.97;;;8.80;99.90;;;;;;5017849;28;20029;-87
2024/04/01 03:40:24;;;;;;;12.82;5.55;;;8.80;99.90;;;;;;4995428;28;20033;-87
2024/04/01 03:42:49;;;;;;;8.85;4.90;;;8.70;99.90;;;;;;4998608;28;20061;-88
2024/04/01 03:45:15;;;;;;;13.70;6.35;;;8.70;99.90;;;;;;5004793;28;20025;-88
2024/04/01 03:47:40;;;;;;;8.57;5.38;;;8.70;99.90;;;;;;4999956;28;20045;-88
2024/04/01 03:50:06;;;;;;;10.07;5.15;;;8.70;99.90;;;;;;5020532;28;20073;-89
2024/04/01 03:52:35;;;;;;;11.23;4.90;;;8.60;99.90;;;;;;5021116;28;20029;-88
2024/04/01 03:55:01;;;;;;;9.23;5.35;;;8.60;99.90;;;;;;5000685;28;20030;-88
2024/04/01 03:57:27;;;;;;;7.47;4.80;;;8.60;99.90;;;;;;5000748;28;20042;-88
2024/04/01 03:59:53;;;;;;;6.53;4.30;;;8.60;99.90;;;;;;5001306;28;20037;-88
2024/04/01 04:02:18;;;;;;;11.32;5.35;;;8.50;99.90;;;;;;5008815;28;20029;-87
2024/04/01 04:04:44;;;;;;;9.70;5.00;;;8.50;99.90;;;;;;5002916;28;20394;-87
2024/04/01 04:07:09;;;;;;;8.88;5.43;;;8.50;99.90;;;;;;4998067;28;20026;-88
2024/04/01 04:09:35;;;;;;;7.55;4.55;;;8.50;99.90;;;;;;5000553;28;20043;-88
2024/04/01 04:12:01;;;;;;;8.00;4.78;;;8.50;99.90;;;;;;4993265;28;20026;-89
2024/04/01 04:14:26;;;;;;;9.57;5.43;;;8.50;99.90;;;;;;4998790;28;20022;-87
2024/04/01 04:16:53;;;;;;;7.05;4.60;;;8.50;99.90;;;;;;4994112;28;20088;-88
2024/04/01 04:19:19;;;;;;;10.07;5.25;;;8.50;99.90;;;;;;5012827;28;20086;-87
2024/04/01 04:21:46;;;;;;;9.45;4.85;;;8.50;99.90;;;;;;5000793;28;20033;-88
2024/04/01 04:24:15;;;;;;;9.45;4.72;;;8.50;99.90;;;;;;5011410;28;20021;-88
2024/04/01 04:26:41;;;;;;;11.50;4.93;;;8.50;99.90;;;;;;5012656;28;20084;-88
2024/04/01 04:29:07;;;;;;;10.75;4.63;;;8.50;99.90;;;;;;5014309;28;20524;-87
2024/04/01 04:31:33;;;;;;;10.13;5.38;;;8.50;99.90;;;;;;5026007;28;20030;-88
2024/04/01 04:33:59;;;;;;;9.68;4.43;;;8.50;99.90;;;;;;4997820;28;20022;-87
2024/04/01 04:36:25;;;;;;;8.65;4.65;;;8.50;99.90;;;;;;4999085;28;20045;-88
2024/04/01 04:38:50;;;;;;;8.02;4.03;;;8.50;99.90;;;;;;4997801;28;20461;-88
2024/04/01 04:41:17;;;;;;;13.25;4.72;;;8.50;99.90;;;;;;4993633;28;20052;-88
2024/04/01 04:43:43;;;;;;;13.07;5.43;;;8.50;99.90;;;;;;5014134;28;20030;-88
2024/04/01 04:46:11;;;;;;;7.97;5.07;;;8.50;99.90;;;;;;5006031;28;20083;-88
2024/04/01 04:48:44;;;;;;;8.30;4.97;;;8.60;99.90;;;;;;5004859;28;20034;-88
2024/04/01 04:51:10;;;;;;;8.13;4.85;;;8.60;99.90;;;;;;4998781;28;20053;-88
2024/04/01 04:53:37;;;;;;;8.32;5.00;;;8.60;99.90;;;;;;5006154;28;20061;-88
2024/04/01 04:56:04;;;;;;;7.22;4.45;;;8.60;99.90;;;;;;4995689;28;20068;-89
2024/04/01 04:58:30;;;;;;;9.30;3.92;;;8.60;99.90;;;;;;4998693;28;20038;-89
2024/04/01 05:00:56;;;;;;;9.15;4.75;;;8.60;99.90;;;;;;5014220;28;20157;-89
2024/04/01 05:03:21;;;;;;;9.50;4.22;;;8.70;99.90;;;;;;4993462;28;20045;-89
2024/04/01 05:05:47;;;;;;;7.57;4.35;;;8.70;99.90;;;;;;4998905;28;20036;-89
2024/04/01 05:08:13;;;;;;;8.55;4.85;;;8.70;99.90;;;;;;4995363;28;20022;-89
2024/04/01 05:10:39;;;;;;;7.38;4.20;;;8.70;99.90;;;;;;4995723;28;20434;-88
2024/04/01 05:13:05;;;;;;;7.57;4.40;;;8.70;99.90;;;;;;5001836;28;20120;-90
2024/04/01 05:15:30;;;;;;;6.85;4.30;;;8.70;99.90;;;;;;5009038;28;20040;-91
2024/04/01 05:17:56;;;;;;;8.52;4.38;;;8.70;99.90;;;;;;4995315;28;20038;-89
2024/04/01 05:20:23;;;;;;;10.80;4.40;;;8.70;99.90;;;;;;4997323;28;20045;-89
2024/04/01 05:22:48;;;;;;;8.65;4.45;;;8.80;99.90;;;;;;5001799;28;20474;-89
2024/04/01 05:25:14;;;;;;;8.02;4.15;;;8.80;99.90;;;;;;4994824;28;20025;-89
2024/04/01 05:27:39;;;;;;;8.52;4.30;;;8.80;99.90;;;;;;4998482;28;20029;-88
2024/04/01 05:30:11;;;;;;;6.55;4.43;;;8.80;99.90;;;;;;4992674;28;20017;-88
2024/04/01 05:32:38;;;;;;;7.43;4.15;;;8.80;99.90;;;;;;5004844;28;20034;-89
2024/04/01 05:35:07;;;;;;;5.93;3.97;;;8.80;99.90;;;;;;4996455;28;20024;-88
2024/04/01 05:37:34;;;;;;;6.63;4.22;;;8.90;99.90;;;;;;4998177;28;20045;-87
2024/04/01 05:40:00;;;;;;;7.65;4.57;;;8.90;99.90;;;;;;4988713;28;20026;-88
2024/04/01 05:42:25;;;;;;;7.43;4.10;;;8.90;99.90;;;;;;4991813;28;20091;-89
2024/04/01 05:44:51;;;;;;;5.45;4.30;;;8.90;99.90;;;;;;4996402;28;20105;-88
2024/04/01 05:47:17;;;;;;;8.45;4.22;;;8.90;99.90;;;;;;5002311;28;20461;-89
2024/04/01 05:49:43;;;;;;;7.05;4.63;;;8.90;99.90;;;;;;5006921;28;20113;-88
2024/04/01 05:52:09;;;;;;;5.70;4.10;;;9.00;99.90;;;;;;5000077;28;20025;-88
2024/04/01 05:54:34;;;;;;;8.57;4.45;;;9.00;99.90;;;;;;4999573;28;20076;-89
2024/04/01 05:57:00;;;;;;;8.25;5.15;;;9.00;99.90;;;;;;5004721;28;20034;-88
2024/04/01 05:59:27;;;;;;;9.63;4.38;;;9.00;99.90;;;;;;4992250;28;20022;-88
2024/04/01 06:01:53;;;;;;;5.93;4.18;;;9.00;99.90;;;;;;4999358;28;20080;-88
2024/04/01 06:04:20;;;;;;;7.72;4.72;;;9.00;99.90;;;;;;5003063;28;20083;-88
2024/04/01 06:06:46;;;;;;;7.43;4.03;;;9.00;99.90;;;;;;4992826;28;20025;-87
2024/04/01 06:09:12;;;;;;;7.80;4.07;;;9.10;99.90;;;;;;5003250;28;20036;-88
2024/04/01 06:11:38;;;;;;;6.43;3.55;;;9.00;99.90;;;;;;4991983;28;20022;-88
2024/04/01 06:14:03;;;;;;;6.25;3.97;;;9.10;99.90;;;;;;5000716;28;20029;-88
2024/04/01 06:16:29;;;;;;;6.40;3.42;;;9.10;99.90;;;;;;4998112;28;20044;-88
2024/04/01 06:18:55;;;;;;;5.65;3.65;;;9.10;99.90;;;;;;4998169;28;20030;-88
2024/04/01 06:21:21;;;;;;;8.77;2.95;;;9.10;99.90;;;;;;4997754;28;20030;-88
2024/04/01 06:23:47;;;;;;;6.22;3.42;;;9.20;99.90;;;;;;5007363;28;20121;-88
2024/04/01 06:26:12;;;;;;;6.55;3.28;;;9.20;99.90;;;;;;4999021;28;20029;-88
2024/04/01 06:28:38;;;;;;;4.57;2.05;;;9.20;99.90;;;;;;4997013;28;20034;-89
2024/04/01 06:31:04;;;;;;;4.57;2.60;;;9.20;99.90;;;;;;4999658;28;20461;-88
2024/04/01 06:33:30;;;;;;;4.97;2.40;;;9.20;99.90;;;;;;5017427;28;20025;-88
2024/04/01 06:36:00;;;;;;;5.80;1.83;;;9.30;99.90;;;;;;4997741;28;20121;-88
2024/04/01 06:38:26;;;;;;;4.25;1.55;;;9.30;99.90;;;;;;5000010;28;20522;-89
2024/04/01 06:40:51;;;;;;;4.05;1.40;;;9.30;99.90;;;;;;5003266;28;20064;-89
2024/04/01 06:43:17;;;;;;;3.58;1.15;;;9.30;99.90;;;;;;5003324;28;20030;-89
2024/04/01 06:46:00;;;;;;;3.33;1.42;;;9.40;99.90;;;;;;4998460;28;20026;-89
2024/04/01 06:48:26;;;;;;;3.65;1.10;;;9.40;99.90;;;;;;4999071;28;20022;-89
2024/04/01 06:50:53;;;;;;;5.57;1.88;;;9.40;99.90;;;;;;5002711;28;20080;-89
2024/04/01 06:53:19;;;;;;;2.92;1.10;;;9.50;99.90;;;;;;5021202;28;20034;-88
2024/04/01 06:55:45;;;;;;;3.50;1.10;;;9.50;99.90;;;;;;4991176;28;20079;-88
2024/04/01 06:58:11;;;;;;;1.80;1.02;;;9.50;99.90;;;;;;5012092;28;20486;-89
2024/04/01 07:00:37;;;;;;;3.50;1.50;;;9.60;99.90;;;;;;4997662;28;20030;-88
2024/04/01 07:03:03;;;;;;;7.10;1.48;;;9.60;99.90;;;;;;5007519;28;20034;-88
2024/04/01 07:05:29;;;;;;;3.72;1.27;;;9.60;99.90;;;;;;5005829;28;20029;-88
2024/04/01 07:07:56;;;;;;;2.50;1.25;;;9.60;99.90;;;;;;4997998;28;20041;-88
2024/04/01 07:10:21;;;;;;;3.95;2.60;;;9.60;99.90;;;;;;4999160;28;20022;-87
2024/04/01 07:12:47;;;;;;;4.35;1.48;;;9.60;99.90;;;;;;4997047;28;20088;-88
2024/04/01 07:15:13;;;;;;;4.72;1.48;;;9.60;99.90;;;;;;5015651;28;20108;-88
2024/04/01 07:17:39;;;;;;;3.45;1.65;;;9.60;99.90;;;;;;4997272;28;20042;-88
2024/04/01 07:20:07;;;;;;;3.58;1.83;;;9.70;99.90;;;;;;4992079;28;20029;-89
2024/04/01 07:22:32;;;;;;;2.53;1.58;;;9.70;99.90;;;;;;5008906;28;20038;-88
2024/04/01 07:24:58;;;;;;;3.35;1.58;;;9.70;99.90;;;;;;5003073;28;20025;-87
2024/04/01 07:27:23;;;;;;;3.70;1.88;;;9.70;99.90;;;;;;4995139;28;20061;-87
2024/04/01 07:29:49;;;;;;;3.05;2.10;;;9.80;99.90;;;;;;4995713;28;20485;-88
2024/04/01 07:32:15;;;;;;;3.20;1.88;;;9.80;99.90;;;;;;4997233;28;20084;-87
2024/04/01 07:34:40;;;;;;;7.15;3.08;;;9.80;99.90;;;;;;4996752;28;20021;-87
2024/04/01 07:37:06;;;;;;;5.90;2.40;;;9.80;99.90;;;;;;4996351;28;20030;-87
2024/04/01 07:39:32;;;;;;;3.67;2.05;;;9.80;99.90;;;;;;5020263;28;20095;-87
2024/04/01 07:41:57;;;;;;;4.78;2.78;;;9.90;99.90;;;;;;5008168;28;20034;-87
2024/04/01 07:44:23;;;;;;;5.53;2.55;;;9.90;99.90;;;;;;5010615;28;20033;-87
2024/04/01 07:46:48;;;;;;;5.88;3.00;;;9.90;99.90;;;;;;5001445;28;20022;-87
2024/04/01 07:49:14;;;;;;;6.90;3.20;;;9.90;99.90;;;;;;4994572;28;20065;-88
2024/04/01 07:51:41;;;;;;;4.65;3.35;;;10.00;99.90;;;;;;5000544;28;20045;-86
2024/04/01 07:54:06;;;;;;;4.72;3.05;;;10.00;99.90;;;;;;5015124;28;20619;-86
2024/04/01 07:56:32;;;;;;;5.35;3.15;;;10.10;99.90;;;;;;4999899;28;20117;-87
2024/04/01 07:58:58;;;;;;;6.28;3.08;;;10.20;99.90;;;;;;5017430;28;20060;-87
2024/04/01 08:01:24;;;;;;;7.32;3.97;;;10.20;99.90;;;;;;4995210;28;20061;-87
2024/04/01 08:03:49;;;;;;;7.00;3.35;;;10.20;99.90;;;;;;4993641;28;20032;-87
2024/04/01 08:06:15;;;;;;;6.30;3.90;;;10.20;99.90;;;;;;5012299;28;20554;-88
2024/04/01 08:08:41;;;;;;;7.65;3.92;;;10.30;99.90;;;;;;4992808;28;20069;-88
2024/04/01 08:11:07;;;;;;;6.63;3.65;;;10.20;99.90;;;;;;5006036;28;20026;-88
2024/04/01 08:13:32;;;;;;;5.88;4.38;;;10.20;99.90;;;;;;5006139;28;20053;-87
2024/04/01 08:16:02;;;;;;;7.45;4.38;;;10.20;99.90;;;;;;4990107;28;20022;-87
2024/04/01 08:18:28;;;;;;;6.22;4.25;;;10.20;99.90;;;;;;4989007;28;20517;-88
2024/04/01 08:20:56;;;;;;;6.25;4.22;;;10.10;99.90;;;;;;4988541;28;20245;-88
2024/04/01 08:23:22;;;;;;;8.57;4.57;;;10.20;99.90;;;;;;5005506;28;20034;-88
2024/04/01 08:25:47;;;;;;;9.45;4.95;;;10.10;99.90;;;;;;4985487;28;20034;-88
2024/04/01 08:28:13;;;;;;;6.20;4.82;;;10.10;99.90;;;;;;4990462;28;20029;-89
2024/04/01 08:30:39;;;;;;;6.28;5.00;;;10.10;99.90;;;;;;4995331;28;20026;-88
2024/04/01 08:33:04;;;;;;;5.32;4.00;;;10.20;99.90;;;;;;4994074;28;20025;-88
2024/04/01 08:35:30;;;;;;;4.72;4.28;;;10.20;99.90;;;;;;4991876;28;20018;-88
2024/04/01 08:37:55;;;;;;;8.10;5.40;;;10.20;99.90;;;;;;4994078;28;20036;-89
2024/04/01 08:40:21;;;;;;;5.35;4.43;;;10.20;99.90;;;;;;5012776;28;20486;-88
2024/04/01 08:42:52;;;;;;;7.68;4.68;;;10.20;99.90;;;;;;4993551;28;20479;-88
2024/04/01 08:45:18;;;;;;;5.25;3.97;;;10.20;99.90;;;;;;4996968;28;20542;-88
2024/04/01 08:47:49;;;;;;;5.72;4.78;;;10.20;99.90;;;;;;4996352;28;20389;-88
2024/04/01 08:50:23;;;;;;;6.75;4.60;;;10.30;99.90;;;;;;4997362;28;20054;-89
2024/04/01 08:53:07;;;;;;;7.43;5.25;;;10.40;99.90;;;;;;5006870;28;20453;-88
2024/04/01 08:55:34;;;;;;;6.10;4.78;;;10.50;99.90;;;;;;4996340;28;20049;-88
2024/04/01 08:58:00;;;;;;;6.90;4.35;;;10.60;99.90;;;;;;4998261;28;20040;-90
2024/04/01 09:00:26;;;;;;;6.93;4.40;;;10.60;99.90;;;;;;4992155;28;20025;-89
2024/04/01 09:02:52;;;;;;;5.57;4.40;;;10.70;99.90;;;;;;4996218;28;20129;-88
2024/04/01 09:05:17;;;;;;;6.05;4.72;;;10.70;99.90;;;;;;4996162;28;20109;-89
2024/04/01 09:07:43;;;;;;;6.75;4.45;;;10.70;99.90;;;;;;4995971;28;20024;-89
2024/04/01 09:10:08;;;;;;;4.93;3.90;;;10.80;99.90;;;;;;4993224;28;20030;-89
2024/04/01 09:12:34;;;;;;;8.10;4.18;;;10.90;99.90;;;;;;4996046;28;20060;-89
2024/04/01 09:15:00;;;;;;;5.18;3.58;;;10.90;99.90;;;;;;4992864;28;20030;-89
2024/04/01 09:17:26;;;;;;;4.55;3.50;;;11.00;99.90;;;;;;4996515;28;20066;-89
2024/04/01 09:19:52;;;;;;;5.13;4.10;;;11.00;99.90;;;;;;5001590;28;20017;-88
2024/04/01 09:22:18;;;;;;;6.30;3.85;;;11.10;99.90;;;;;;4998738;28;20026;-87
2024/04/01 09:24:46;;;;;;;6.50;4.18;;;11.20;99.90;;;;;;5006284;28;20029;-89
2024/04/01 09:27:12;;;;;;;6.40;3.58;;;11.20;99.90;;;;;;4998087;28;20144;-89
2024/04/01 09:29:37;;;;;;;5.95;4.05;;;11.30;99.90;;;;;;4996886;28;20113;-89
2024/04/01 09:32:35;;;;;;;4.38;3.53;;;11.30;99.90;;;;;;4996578;28;20089;-89
2024/04/01 09:35:02;;;;;;;4.28;3.00;;;11.30;99.90;;;;;;4978895;28;20030;-90
2024/04/01 09:37:28;;;;;;;4.93;3.33;;;11.20;99.90;;;;;;4991752;28;20038;-90
2024/04/01 09:39:54;;;;;;;4.07;2.97;;;11.20;99.90;;;;;;4991142;28;20022;-88
2024/04/01 09:42:19;;;;;;;4.85;3.20;;;11.20;99.90;;;;;;5004491;28;20160;-89
2024/04/01 09:44:45;;;;;;;4.75;3.05;;;11.20;99.90;;;;;;4996439;28;20026;-88
2024/04/01 09:47:11;;;;;;;6.93;2.95;;;11.20;99.90;;;;;;5016485;28;20026;-89
2024/04/01 09:49:39;;;;;;;3.70;2.33;;;11.20;99.90;;;;;;5009045;28;20163;-88
2024/04/01 09:52:06;;;;;;;2.85;2.30;;;11.20;99.90;;;;;;5025338;28;20025;-88
2024/04/01 09:54:31;;;;;;;4.32;2.42;;;11.20;99.90;;;;;;5002564;28;20394;-88
2024/04/01 09:57:33;;;;;;;3.03;2.22;;;11.20;99.90;;;;;;4994012;28;20046;-88
2024/04/01 10:00:16;;;;;;;3.47;2.30;;;11.20;99.90;;;;;;4996978;28;20110;-88
2024/04/01 10:03:04;;;;;;;2.90;1.40;;;11.20;99.90;;;;;;5017003;28;20025;-88
2024/04/01 10:05:53;;;;;;;4.55;1.98;;;11.30;99.90;;;;;;5000275;28;20018;-88
2024/04/01 10:08:33;;;;;;;3.63;2.45;;;11.20;99.90;;;;;;5010407;28;20077;-88
2024/04/01 10:11:31;;;;;;;7.13;3.00;;;11.20;99.90;;;;;;5014084;28;20490;-88
2024/04/01 10:14:30;;;;;;;4.95;3.05;;;11.20;99.90;;;;;;4990302;28;20029;-88
2024/04/01 10:17:25;;;;;;;5.78;3.17;;;11.30;99.90;;;;;;5012280;28;20487;-88
2024/04/01 10:20:26;;;;;;;5.28;3.30;;;11.30;99.90;;;;;;5008493;28;20036;-88
2024/04/01 10:23:11;;;;;;;5.10;4.00;;;11.30;99.90;;;;;;4992928;28;20058;-87
2024/04/01 10:26:12;;;;;;;6.47;3.67;;;11.30;99.90;;;;;;5002510;28;20497;-88
2024/04/01 10:29:04;;;;;;;6.30;4.10;;;11.30;99.90;;;;;;4998335;28;20046;-89
2024/04/01 10:31:57;;;;;;;9.63;4.50;;;11.20;99.90;;;;;;5015632;28;20033;-88
2024/04/01 10:34:35;;;;;;;6.53;4.72;;;11.20;99.90;;;;;;5008575;28;20041;-88
2024/04/01 10:37:23;;;;;;;8.50;4.13;;;11.10;99.90;;;;;;4999288;28;20411;-88
2024/04/01 10:40:30;;;;;;;5.68;4.43;;;11.10;99.90;;;;;;5005783;28;20513;-88
2024/04/01 10:43:20;;;;;;;5.82;4.75;;;11.10;99.90;;;;;;4953982;28;20091;-87
2024/04/01 10:46:25;;;;;;;8.50;5.80;;;11.10;99.90;;;;;;5008030;28;20151;-88
2024/04/01 10:49:28;;;;;;;7.25;5.80;;;11.10;99.90;;;;;;4999617;28;20036;-88
2024/04/01 10:52:12;;;;;;;8.50;5.80;;;11.10;99.90;;;;;;5005190;28;20034;-89
2024/04/01 10:55:06;;;;;;;10.77;6.07;;;11.10;99.90;;;;;;5017461;28;20053;-88
2024/04/01 10:58:04;;;;;;;11.20;6.10;;;11.10;99.90;;;;;;5013010;28;20038;-88
2024/04/01 11:00:48;;;;;;;8.15;5.90;;;11.10;99.90;;;;;;5030817;28;20049;-88
2024/04/01 11:03:42;;;;;;;7.63;6.53;;;11.10;99.90;;;;;;5025675;28;20051;-88
2024/04/01 11:06:55;;;;;;;9.05;5.78;;;11.10;99.90;;;;;;5020952;28;20041;-89
2024/04/01 11:09:39;;;;;;;7.97;4.65;;;11.20;99.90;;;;;;4942751;29;20134;-88
2024/04/01 11:12:34;;;;;;;6.53;4.03;;;11.20;99.90;;;;;;5015505;28;20433;-88
2024/04/01 11:15:04;;;;;;;7.03;3.80;;;11.20;99.90;;;;;;5022513;28;20040;-88
2024/04/01 11:17:33;;;;;;;11.05;4.57;;;11.20;99.90;;;;;;5001433;28;20038;-88
2024/04/01 11:20:21;;;;;;;10.05;4.82;;;11.30;99.90;;;;;;4998766;28;20026;-88
2024/04/01 11:23:11;;;;;;;7.07;3.60;;;11.40;99.90;;;;;;4997759;28;20032;-88
2024/04/01 11:26:38;;;;;;;6.05;2.80;;;11.60;99.90;;;;;;5019617;28;20025;-88
2024/04/01 11:29:31;;;;;;;9.13;2.58;;;11.60;99.90;;;;;;4947252;28;20030;-87
2024/04/01 11:32:03;;;;;;;5.15;2.00;;;11.80;99.90;;;;;;4955246;28;20030;-88
2024/04/01 11:34:48;;;;;;;;;;;11.80;99.90;;;;;;4983019;28;20030;-88
2024/04/01 11:37:31;;;;;;;3.78;1.95;;;11.90;99.90;;;;;;5023357;28;19961;-89
2024/04/01 11:40:04;;;;;;;8.07;1.50;;;12.00;99.90;;;;;;4995307;28;20426;-89
2024/04/01 11:42:32;;;;;;;7.30;1.65;;;12.10;99.90;;;;;;5035719;28;20028;-87
2024/04/01 11:45:01;;;;;;;5.72;1.85;;;12.20;99.90;;;;;;4996514;28;20033;-88
2024/04/01 11:47:27;;;;;;;5.18;2.03;;;12.30;99.90;;;;;;4996589;28;20041;-88
2024/04/01 11:49:53;;;;;;;7.10;1.45;;;12.30;99.90;;;;;;4997740;28;20046;-89
2024/04/01 11:52:20;;;;;;;5.40;0.90;;;12.40;99.90;;;;;;4995446;28;20030;-87
2024/04/01 11:54:46;;;;;;;6.75;1.13;;;12.50;99.90;;;;;;4998006;28;20505;-85
2024/04/01 11:57:23;;;;;;;7.00;0.90;;;12.70;99.90;;;;;;5014423;28;20116;-87
2024/04/01 11:59:49;;;;;;;4.82;1.02;;;12.70;99.90;;;;;;4995574;28;20037;-87
2024/04/01 12:02:17;;;;;;;8.88;1.17;;;12.80;99.90;;;;;;5006815;28;20029;-87
2024/04/01 12:04:43;;;;;;;6.05;1.08;;;13.00;99.90;;;;;;5001184;28;20148;-88
2024/04/01 12:07:19;;;;;;;5.90;1.13;;;13.10;99.90;;;;;;4998896;28;20037;-88
2024/04/01 12:09:46;;;;;;;7.55;1.35;;;13.20;99.90;;;;;;5002246;28;20135;-88
2024/04/01 12:12:12;;;;;;;6.35;0.68;;;13.40;99.90;;;;;;4999835;28;20026;-88
2024/04/01 12:14:38;;;;;;;5.85;0.65;;;13.50;99.90;;;;;;4989886;28;20108;-88
2024/04/01 12:17:07;;;;;;;4.30;0.60;;;13.50;99.90;;;;;;4997730;28;20046;-88
2024/04/01 12:19:33;;;;;;;2.92;0.65;;;13.60;99.90;;;;;;5016404;28;20849;-88
2024/04/01 12:22:02;;;;;;;3.70;0.50;;;13.60;99.90;;;;;;5016734;28;20489;-88
2024/04/01 12:24:28;;;;;;;3.13;0.60;;;13.70;99.90;;;;;;5011105;28;20033;-88
2024/04/01 12:26:54;;;;;;;3.63;0.50;;;13.80;99.90;;;;;;4997450;28;20470;-87
2024/04/01 12:29:21;;;;;;;2.80;0.40;;;13.80;99.90;;;;;;4983820;28;20057;-88
2024/04/01 12:31:56;;;;;;;7.97;0.70;;;13.80;99.90;;;;;;4998329;28;20590;-87
2024/04/01 12:34:21;;;;;;;3.00;0.50;;;13.80;99.90;;;;;;4998257;28;20478;-87
2024/04/01 12:36:48;;;;;;;4.47;0.50;;;13.80;99.90;;;;;;4998693;28;20065;-87
2024/04/01 12:39:14;;;;;;;3.10;0.47;;;13.90;99.90;;;;;;4999881;28;20026;-87
2024/04/01 12:41:40;;;;;;;1.55;0.60;;;13.90;99.90;;;;;;5012786;28;20093;-87
2024/04/01 12:44:08;;;;;;;5.32;1.40;;;14.00;99.90;;;;;;4998786;28;20034;-87
2024/04/01 12:46:41;;;;;;;5.72;0.65;;;14.00;99.90;;;;;;4998905;28;20030;-87
2024/04/01 12:49:14;;;;;;;2.55;0.60;;;13.90;99.90;;;;;;4999125;28;20034;-87
2024/04/01 12:51:47;;;;;;;;;;;13.90;99.90;;;;;;4998218;28;20115;-86
2024/04/01 12:54:42;;;;;;;2.08;0.70;;;13.70;99.90;;;;;;5002407;28;19992;-87
2024/04/01 12:57:22;;;;;;;9.95;0.90;;;13.80;99.90;;;;;;4982806;28;20037;-88
2024/04/01 13:00:07;;;;;;;2.22;0.50;;;13.90;99.90;;;;;;4987546;28;20477;-88
2024/04/01 13:03:01;;;;;;;3.92;0.63;;;14.00;99.90;;;;;;4992493;28;20037;-86